sensor_id;sensor_type;location;lat;lon;timestamp;P1;durP1;ratioP1;P2;durP2;ratioP2
64936;SDS011;51452;47.698;19.050;2024-02-28T00:01:51;12.30;;;6.28;;
64936;SDS011;51452;47.698;19.050;2024-02-28T00:04:17;11.30;;;6.72;;
64936;SDS011;51452;47.698;19.050;2024-02-28T00:06:44;11.60;;;6.18;;
64936;SDS011;51452;47.698;19.050;2024-02-28T00:09:13;14.18;;;6.85;;
64936;SDS011;51452;47.698;19.050;2024-02-28T00:11:42;12.57;;;6.53;;
64936;SDS011;51452;47.698;19.050;2024-02-28T00:14:09;13.18;;;6.90;;
64936;SDS011;51452;47.698;19.050;2024-02-28T00:16:45;13.13;;;6.38;;
64936;SDS011;51452;47.698;19.050;2024-02-28T00:19:11;14.13;;;7.05;;
64936;SDS011;51452;47.698;19.050;2024-02-28T00:21:38;12.82;;;6.93;;
64936;SDS011;51452;47.698;19.050;2024-02-28T00:24:06;11.32;;;6.20;;
64936;SDS011;51452;47.698;19.050;2024-02-28T00:26:32;14.88;;;6.28;;
64936;SDS011;51452;47.698;19.050;2024-02-28T00:28:57;14.77;;;6.25;;
64936;SDS011;51452;47.698;19.050;2024-02-28T00:31:26;13.85;;;6.80;;
64936;SDS011;51452;47.698;19.050;2024-02-28T00:33:51;13.90;;;6.30;;
64936;SDS011;51452;47.698;19.050;2024-02-28T00:36:17;12.68;;;6.30;;
64936;SDS011;51452;47.698;19.050;2024-02-28T00:38:43;12.52;;;6.85;;
64936;SDS011;51452;47.698;19.050;2024-02-28T00:41:09;16.17;;;7.75;;
64936;SDS011;51452;47.698;19.050;2024-02-28T00:43:34;15.15;;;7.80;;
64936;SDS011;51452;47.698;19.050;2024-02-28T00:46:00;14.32;;;7.82;;
64936;SDS011;51452;47.698;19.050;2024-02-28T00:48:25;15.02;;;7.45;;
64936;SDS011;51452;47.698;19.050;2024-02-28T00:50:51;13.70;;;8.10;;
64936;SDS011;51452;47.698;19.050;2024-02-28T00:53:17;14.77;;;7.53;;
64936;SDS011;51452;47.698;19.050;2024-02-28T00:55:43;18.67;;;7.53;;
64936;SDS011;51452;47.698;19.050;2024-02-28T00:58:08;15.30;;;7.72;;
64936;SDS011;51452;47.698;19.050;2024-02-28T01:00:34;14.43;;;7.40;;
64936;SDS011;51452;47.698;19.050;2024-02-28T01:03:00;12.82;;;7.32;;
64936;SDS011;51452;47.698;19.050;2024-02-28T01:05:28;17.10;;;8.13;;
64936;SDS011;51452;47.698;19.050;2024-02-28T01:07:54;18.75;;;7.70;;
64936;SDS011;51452;47.698;19.050;2024-02-28T01:10:19;16.48;;;8.13;;
64936;SDS011;51452;47.698;19.050;2024-02-28T01:12:44;15.43;;;7.82;;
64936;SDS011;51452;47.698;19.050;2024-02-28T01:15:10;17.88;;;8.95;;
64936;SDS011;51452;47.698;19.050;2024-02-28T01:17:35;14.15;;;9.00;;
64936;SDS011;51452;47.698;19.050;2024-02-28T01:20:01;21.60;;;9.18;;
64936;SDS011;51452;47.698;19.050;2024-02-28T01:22:26;18.30;;;8.80;;
64936;SDS011;51452;47.698;19.050;2024-02-28T01:24:52;16.02;;;8.73;;
64936;SDS011;51452;47.698;19.050;2024-02-28T01:27:17;16.23;;;9.05;;
64936;SDS011;51452;47.698;19.050;2024-02-28T01:29:42;15.68;;;8.68;;
64936;SDS011;51452;47.698;19.050;2024-02-28T01:32:07;16.02;;;8.35;;
64936;SDS011;51452;47.698;19.050;2024-02-28T01:34:33;18.92;;;8.60;;
64936;SDS011;51452;47.698;19.050;2024-02-28T01:36:58;17.05;;;9.25;;
64936;SDS011;51452;47.698;19.050;2024-02-28T01:39:24;17.52;;;10.07;;
64936;SDS011;51452;47.698;19.050;2024-02-28T01:41:53;14.70;;;9.40;;
64936;SDS011;51452;47.698;19.050;2024-02-28T01:44:19;18.02;;;9.32;;
64936;SDS011;51452;47.698;19.050;2024-02-28T01:46:45;18.80;;;10.27;;
64936;SDS011;51452;47.698;19.050;2024-02-28T01:49:11;17.88;;;9.18;;
64936;SDS011;51452;47.698;19.050;2024-02-28T01:51:36;18.83;;;9.73;;
64936;SDS011;51452;47.698;19.050;2024-02-28T01:54:02;16.98;;;9.45;;
64936;SDS011;51452;47.698;19.050;2024-02-28T01:56:28;19.67;;;10.40;;
64936;SDS011;51452;47.698;19.050;2024-02-28T01:58:54;16.88;;;9.15;;
64936;SDS011;51452;47.698;19.050;2024-02-28T02:01:20;18.13;;;9.60;;
64936;SDS011;51452;47.698;19.050;2024-02-28T02:03:46;18.70;;;9.38;;
64936;SDS011;51452;47.698;19.050;2024-02-28T02:06:12;21.05;;;10.45;;
64936;SDS011;51452;47.698;19.050;2024-02-28T02:08:38;19.30;;;10.38;;
64936;SDS011;51452;47.698;19.050;2024-02-28T02:11:04;17.83;;;9.45;;
64936;SDS011;51452;47.698;19.050;2024-02-28T02:13:30;15.55;;;9.05;;
64936;SDS011;51452;47.698;19.050;2024-02-28T02:15:56;15.65;;;9.15;;
64936;SDS011;51452;47.698;19.050;2024-02-28T02:18:21;18.17;;;9.73;;
64936;SDS011;51452;47.698;19.050;2024-02-28T02:20:48;19.27;;;10.10;;
64936;SDS011;51452;47.698;19.050;2024-02-28T02:23:15;20.05;;;11.10;;
64936;SDS011;51452;47.698;19.050;2024-02-28T02:25:46;21.13;;;11.18;;
64936;SDS011;51452;47.698;19.050;2024-02-28T02:28:12;18.75;;;9.75;;
64936;SDS011;51452;47.698;19.050;2024-02-28T02:30:38;18.98;;;11.18;;
64936;SDS011;51452;47.698;19.050;2024-02-28T02:33:05;18.50;;;10.48;;
64936;SDS011;51452;47.698;19.050;2024-02-28T02:35:31;22.25;;;10.70;;
64936;SDS011;51452;47.698;19.050;2024-02-28T02:37:57;24.38;;;11.70;;
64936;SDS011;51452;47.698;19.050;2024-02-28T02:40:22;19.45;;;10.48;;
64936;SDS011;51452;47.698;19.050;2024-02-28T02:42:48;19.05;;;10.68;;
64936;SDS011;51452;47.698;19.050;2024-02-28T02:45:13;18.35;;;9.98;;
64936;SDS011;51452;47.698;19.050;2024-02-28T02:47:39;19.35;;;10.23;;
64936;SDS011;51452;47.698;19.050;2024-02-28T02:50:04;22.52;;;10.30;;
64936;SDS011;51452;47.698;19.050;2024-02-28T02:52:31;20.20;;;9.57;;
64936;SDS011;51452;47.698;19.050;2024-02-28T02:54:57;22.30;;;10.82;;
64936;SDS011;51452;47.698;19.050;2024-02-28T02:57:22;17.35;;;9.73;;
64936;SDS011;51452;47.698;19.050;2024-02-28T02:59:48;19.17;;;10.00;;
64936;SDS011;51452;47.698;19.050;2024-02-28T03:02:13;20.25;;;11.18;;
64936;SDS011;51452;47.698;19.050;2024-02-28T03:04:38;22.55;;;9.68;;
64936;SDS011;51452;47.698;19.050;2024-02-28T03:07:04;19.70;;;10.35;;
64936;SDS011;51452;47.698;19.050;2024-02-28T03:09:29;16.27;;;9.75;;
64936;SDS011;51452;47.698;19.050;2024-02-28T03:11:54;19.13;;;10.55;;
64936;SDS011;51452;47.698;19.050;2024-02-28T03:14:20;15.82;;;9.77;;
64936;SDS011;51452;47.698;19.050;2024-02-28T03:16:47;15.60;;;9.45;;
64936;SDS011;51452;47.698;19.050;2024-02-28T03:19:14;18.80;;;10.10;;
64936;SDS011;51452;47.698;19.050;2024-02-28T03:21:40;18.17;;;10.18;;
64936;SDS011;51452;47.698;19.050;2024-02-28T03:24:06;16.52;;;9.32;;
64936;SDS011;51452;47.698;19.050;2024-02-28T03:26:32;18.10;;;9.65;;
64936;SDS011;51452;47.698;19.050;2024-02-28T03:28:58;14.10;;;9.15;;
64936;SDS011;51452;47.698;19.050;2024-02-28T03:31:24;16.48;;;9.25;;
64936;SDS011;51452;47.698;19.050;2024-02-28T03:33:49;21.02;;;9.48;;
64936;SDS011;51452;47.698;19.050;2024-02-28T03:36:14;18.55;;;9.32;;
64936;SDS011;51452;47.698;19.050;2024-02-28T03:38:40;15.88;;;9.65;;
64936;SDS011;51452;47.698;19.050;2024-02-28T03:41:06;19.13;;;9.95;;
64936;SDS011;51452;47.698;19.050;2024-02-28T03:43:31;15.98;;;8.82;;
64936;SDS011;51452;47.698;19.050;2024-02-28T03:45:56;16.35;;;8.45;;
64936;SDS011;51452;47.698;19.050;2024-02-28T03:48:22;21.50;;;10.18;;
64936;SDS011;51452;47.698;19.050;2024-02-28T03:50:47;18.40;;;9.35;;
64936;SDS011;51452;47.698;19.050;2024-02-28T03:53:13;18.33;;;9.85;;
64936;SDS011;51452;47.698;19.050;2024-02-28T03:55:38;19.15;;;9.45;;
64936;SDS011;51452;47.698;19.050;2024-02-28T03:58:04;17.52;;;9.10;;
64936;SDS011;51452;47.698;19.050;2024-02-28T04:00:32;18.35;;;10.35;;
64936;SDS011;51452;47.698;19.050;2024-02-28T04:02:57;16.73;;;9.20;;
64936;SDS011;51452;47.698;19.050;2024-02-28T04:05:22;17.10;;;8.98;;
64936;SDS011;51452;47.698;19.050;2024-02-28T04:07:48;17.23;;;10.02;;
64936;SDS011;51452;47.698;19.050;2024-02-28T04:10:13;14.52;;;8.95;;
64936;SDS011;51452;47.698;19.050;2024-02-28T04:12:42;19.95;;;9.20;;
64936;SDS011;51452;47.698;19.050;2024-02-28T04:15:10;16.27;;;9.18;;
64936;SDS011;51452;47.698;19.050;2024-02-28T04:17:37;17.42;;;8.98;;
64936;SDS011;51452;47.698;19.050;2024-02-28T04:20:03;18.98;;;9.05;;
64936;SDS011;51452;47.698;19.050;2024-02-28T04:22:30;18.73;;;9.13;;
64936;SDS011;51452;47.698;19.050;2024-02-28T04:24:56;19.40;;;9.93;;
64936;SDS011;51452;47.698;19.050;2024-02-28T04:27:22;16.42;;;9.13;;
64936;SDS011;51452;47.698;19.050;2024-02-28T04:29:48;16.33;;;8.85;;
64936;SDS011;51452;47.698;19.050;2024-02-28T04:32:13;15.70;;;9.02;;
64936;SDS011;51452;47.698;19.050;2024-02-28T04:34:38;13.30;;;8.02;;
64936;SDS011;51452;47.698;19.050;2024-02-28T04:37:04;15.95;;;9.40;;
64936;SDS011;51452;47.698;19.050;2024-02-28T04:39:29;16.88;;;9.20;;
64936;SDS011;51452;47.698;19.050;2024-02-28T04:41:54;16.58;;;8.50;;
64936;SDS011;51452;47.698;19.050;2024-02-28T04:44:20;19.30;;;9.05;;
64936;SDS011;51452;47.698;19.050;2024-02-28T04:46:45;13.18;;;7.75;;
64936;SDS011;51452;47.698;19.050;2024-02-28T04:49:11;14.65;;;8.02;;
64936;SDS011;51452;47.698;19.050;2024-02-28T04:51:36;15.93;;;8.00;;
64936;SDS011;51452;47.698;19.050;2024-02-28T04:54:01;17.65;;;9.10;;
64936;SDS011;51452;47.698;19.050;2024-02-28T04:56:27;15.27;;;8.35;;
64936;SDS011;51452;47.698;19.050;2024-02-28T04:58:52;14.98;;;8.60;;
64936;SDS011;51452;47.698;19.050;2024-02-28T05:01:18;14.60;;;7.65;;
64936;SDS011;51452;47.698;19.050;2024-02-28T05:03:43;15.40;;;7.60;;
64936;SDS011;51452;47.698;19.050;2024-02-28T05:06:08;14.05;;;8.05;;
64936;SDS011;51452;47.698;19.050;2024-02-28T05:08:36;18.23;;;8.82;;
64936;SDS011;51452;47.698;19.050;2024-02-28T05:11:02;17.92;;;9.50;;
64936;SDS011;51452;47.698;19.050;2024-02-28T05:13:28;19.02;;;9.38;;
64936;SDS011;51452;47.698;19.050;2024-02-28T05:15:53;15.35;;;8.77;;
64936;SDS011;51452;47.698;19.050;2024-02-28T05:18:18;18.13;;;8.63;;
64936;SDS011;51452;47.698;19.050;2024-02-28T05:20:44;21.02;;;7.97;;
64936;SDS011;51452;47.698;19.050;2024-02-28T05:23:10;15.55;;;8.57;;
64936;SDS011;51452;47.698;19.050;2024-02-28T05:25:35;18.13;;;8.70;;
64936;SDS011;51452;47.698;19.050;2024-02-28T05:28:00;18.00;;;8.25;;
64936;SDS011;51452;47.698;19.050;2024-02-28T05:30:26;15.82;;;8.82;;
64936;SDS011;51452;47.698;19.050;2024-02-28T05:32:51;15.75;;;8.40;;
64936;SDS011;51452;47.698;19.050;2024-02-28T05:35:17;12.98;;;8.07;;
64936;SDS011;51452;47.698;19.050;2024-02-28T05:37:43;16.70;;;8.80;;
64936;SDS011;51452;47.698;19.050;2024-02-28T05:40:09;13.07;;;7.85;;
64936;SDS011;51452;47.698;19.050;2024-02-28T05:42:37;18.02;;;8.73;;
64936;SDS011;51452;47.698;19.050;2024-02-28T05:45:03;15.27;;;8.35;;
64936;SDS011;51452;47.698;19.050;2024-02-28T05:47:29;14.65;;;8.77;;
64936;SDS011;51452;47.698;19.050;2024-02-28T05:49:54;18.38;;;9.50;;
64936;SDS011;51452;47.698;19.050;2024-02-28T05:52:21;14.30;;;8.43;;
64936;SDS011;51452;47.698;19.050;2024-02-28T05:54:47;17.05;;;9.05;;
64936;SDS011;51452;47.698;19.050;2024-02-28T05:57:16;16.48;;;9.38;;
64936;SDS011;51452;47.698;19.050;2024-02-28T05:59:42;13.48;;;8.93;;
64936;SDS011;51452;47.698;19.050;2024-02-28T06:02:07;17.83;;;9.75;;
64936;SDS011;51452;47.698;19.050;2024-02-28T06:04:33;19.98;;;9.65;;
64936;SDS011;51452;47.698;19.050;2024-02-28T06:06:58;17.70;;;9.50;;
64936;SDS011;51452;47.698;19.050;2024-02-28T06:09:24;17.98;;;8.88;;
64936;SDS011;51452;47.698;19.050;2024-02-28T06:11:50;17.48;;;8.68;;
64936;SDS011;51452;47.698;19.050;2024-02-28T06:14:16;15.77;;;8.93;;
64936;SDS011;51452;47.698;19.050;2024-02-28T06:16:41;17.63;;;8.55;;
64936;SDS011;51452;47.698;19.050;2024-02-28T06:19:06;18.55;;;8.32;;
64936;SDS011;51452;47.698;19.050;2024-02-28T06:21:32;18.50;;;8.25;;
64936;SDS011;51452;47.698;19.050;2024-02-28T06:23:57;15.68;;;8.68;;
64936;SDS011;51452;47.698;19.050;2024-02-28T06:26:23;23.02;;;8.32;;
64936;SDS011;51452;47.698;19.050;2024-02-28T06:28:48;17.20;;;7.65;;
64936;SDS011;51452;47.698;19.050;2024-02-28T06:31:18;17.48;;;7.35;;
64936;SDS011;51452;47.698;19.050;2024-02-28T06:33:44;16.88;;;7.75;;
64936;SDS011;51452;47.698;19.050;2024-02-28T06:36:10;13.77;;;7.45;;
64936;SDS011;51452;47.698;19.050;2024-02-28T06:38:36;15.00;;;6.93;;
64936;SDS011;51452;47.698;19.050;2024-02-28T06:41:04;14.48;;;7.25;;
64936;SDS011;51452;47.698;19.050;2024-02-28T06:43:36;15.93;;;6.95;;
64936;SDS011;51452;47.698;19.050;2024-02-28T06:46:01;13.93;;;7.07;;
64936;SDS011;51452;47.698;19.050;2024-02-28T06:48:27;15.45;;;6.55;;
64936;SDS011;51452;47.698;19.050;2024-02-28T06:50:54;13.27;;;6.30;;
64936;SDS011;51452;47.698;19.050;2024-02-28T06:53:19;15.40;;;6.85;;
64936;SDS011;51452;47.698;19.050;2024-02-28T06:55:45;17.17;;;7.28;;
64936;SDS011;51452;47.698;19.050;2024-02-28T06:58:13;15.82;;;6.80;;
64936;SDS011;51452;47.698;19.050;2024-02-28T07:00:38;10.98;;;6.03;;
64936;SDS011;51452;47.698;19.050;2024-02-28T07:03:04;22.17;;;7.32;;
64936;SDS011;51452;47.698;19.050;2024-02-28T07:05:29;15.95;;;7.43;;
64936;SDS011;51452;47.698;19.050;2024-02-28T07:07:55;14.65;;;6.40;;
64936;SDS011;51452;47.698;19.050;2024-02-28T07:10:20;12.52;;;6.93;;
64936;SDS011;51452;47.698;19.050;2024-02-28T07:12:45;14.70;;;6.72;;
64936;SDS011;51452;47.698;19.050;2024-02-28T07:15:11;13.90;;;7.55;;
64936;SDS011;51452;47.698;19.050;2024-02-28T07:17:36;17.70;;;7.22;;
64936;SDS011;51452;47.698;19.050;2024-02-28T07:20:01;19.13;;;7.45;;
64936;SDS011;51452;47.698;19.050;2024-02-28T07:22:27;13.45;;;6.70;;
64936;SDS011;51452;47.698;19.050;2024-02-28T07:24:52;15.82;;;6.43;;
64936;SDS011;51452;47.698;19.050;2024-02-28T07:27:18;18.55;;;6.68;;
64936;SDS011;51452;47.698;19.050;2024-02-28T07:29:43;15.40;;;6.68;;
64936;SDS011;51452;47.698;19.050;2024-02-28T07:32:09;18.27;;;7.10;;
64936;SDS011;51452;47.698;19.050;2024-02-28T07:34:34;14.13;;;6.10;;
64936;SDS011;51452;47.698;19.050;2024-02-28T07:37:00;14.05;;;6.40;;
64936;SDS011;51452;47.698;19.050;2024-02-28T07:39:25;15.90;;;6.20;;
64936;SDS011;51452;47.698;19.050;2024-02-28T07:41:52;16.35;;;6.40;;
64936;SDS011;51452;47.698;19.050;2024-02-28T07:44:17;13.57;;;7.35;;
64936;SDS011;51452;47.698;19.050;2024-02-28T07:46:43;13.73;;;6.15;;
64936;SDS011;51452;47.698;19.050;2024-02-28T07:49:09;14.80;;;6.50;;
64936;SDS011;51452;47.698;19.050;2024-02-28T07:51:35;12.88;;;6.57;;
64936;SDS011;51452;47.698;19.050;2024-02-28T07:54:01;17.10;;;6.68;;
64936;SDS011;51452;47.698;19.050;2024-02-28T07:56:26;12.20;;;6.78;;
64936;SDS011;51452;47.698;19.050;2024-02-28T07:58:52;15.52;;;6.90;;
64936;SDS011;51452;47.698;19.050;2024-02-28T08:01:17;15.48;;;6.88;;
64936;SDS011;51452;47.698;19.050;2024-02-28T08:03:43;13.65;;;6.18;;
64936;SDS011;51452;47.698;19.050;2024-02-28T08:06:08;13.32;;;6.47;;
64936;SDS011;51452;47.698;19.050;2024-02-28T08:08:35;15.40;;;6.47;;
64936;SDS011;51452;47.698;19.050;2024-02-28T08:11:00;15.00;;;6.43;;
64936;SDS011;51452;47.698;19.050;2024-02-28T08:13:29;16.50;;;6.25;;
64936;SDS011;51452;47.698;19.050;2024-02-28T08:15:55;19.02;;;6.20;;
64936;SDS011;51452;47.698;19.050;2024-02-28T08:18:20;18.77;;;7.05;;
64936;SDS011;51452;47.698;19.050;2024-02-28T08:20:46;13.88;;;6.45;;
64936;SDS011;51452;47.698;19.050;2024-02-28T08:23:11;13.65;;;6.72;;
64936;SDS011;51452;47.698;19.050;2024-02-28T08:25:37;14.68;;;6.43;;
64936;SDS011;51452;47.698;19.050;2024-02-28T08:28:03;15.02;;;6.10;;
64936;SDS011;51452;47.698;19.050;2024-02-28T08:30:28;12.70;;;6.35;;
64936;SDS011;51452;47.698;19.050;2024-02-28T08:32:54;14.13;;;6.07;;
64936;SDS011;51452;47.698;19.050;2024-02-28T08:35:20;13.73;;;6.30;;
64936;SDS011;51452;47.698;19.050;2024-02-28T08:37:45;13.65;;;6.05;;
64936;SDS011;51452;47.698;19.050;2024-02-28T08:40:11;13.13;;;7.18;;
64936;SDS011;51452;47.698;19.050;2024-02-28T08:42:37;14.13;;;6.35;;
64936;SDS011;51452;47.698;19.050;2024-02-28T08:45:03;11.70;;;5.88;;
64936;SDS011;51452;47.698;19.050;2024-02-28T08:47:31;13.73;;;5.82;;
64936;SDS011;51452;47.698;19.050;2024-02-28T08:49:56;18.60;;;6.45;;
64936;SDS011;51452;47.698;19.050;2024-02-28T08:52:22;14.80;;;6.40;;
64936;SDS011;51452;47.698;19.050;2024-02-28T08:54:47;16.35;;;6.57;;
64936;SDS011;51452;47.698;19.050;2024-02-28T08:57:13;15.25;;;6.45;;
64936;SDS011;51452;47.698;19.050;2024-02-28T08:59:39;12.68;;;6.50;;
64936;SDS011;51452;47.698;19.050;2024-02-28T09:02:07;17.10;;;6.70;;
64936;SDS011;51452;47.698;19.050;2024-02-28T09:04:36;11.82;;;6.40;;
64936;SDS011;51452;47.698;19.050;2024-02-28T09:07:01;12.50;;;6.57;;
64936;SDS011;51452;47.698;19.050;2024-02-28T09:09:26;16.65;;;6.70;;
64936;SDS011;51452;47.698;19.050;2024-02-28T09:11:53;12.27;;;6.43;;
64936;SDS011;51452;47.698;19.050;2024-02-28T09:14:19;15.48;;;6.78;;
64936;SDS011;51452;47.698;19.050;2024-02-28T09:16:44;18.05;;;6.80;;
64936;SDS011;51452;47.698;19.050;2024-02-28T09:19:10;14.77;;;7.25;;
64936;SDS011;51452;47.698;19.050;2024-02-28T09:21:35;16.73;;;7.05;;
64936;SDS011;51452;47.698;19.050;2024-02-28T09:24:00;16.63;;;7.53;;
64936;SDS011;51452;47.698;19.050;2024-02-28T09:26:26;15.60;;;6.78;;
64936;SDS011;51452;47.698;19.050;2024-02-28T09:28:52;18.70;;;6.50;;
64936;SDS011;51452;47.698;19.050;2024-02-28T09:31:17;13.60;;;7.05;;
64936;SDS011;51452;47.698;19.050;2024-02-28T09:33:43;12.23;;;7.13;;
64936;SDS011;51452;47.698;19.050;2024-02-28T09:36:10;16.13;;;7.10;;
64936;SDS011;51452;47.698;19.050;2024-02-28T09:38:36;15.32;;;7.25;;
64936;SDS011;51452;47.698;19.050;2024-02-28T09:41:02;22.50;;;7.05;;
64936;SDS011;51452;47.698;19.050;2024-02-28T09:43:31;13.93;;;6.32;;
64936;SDS011;51452;47.698;19.050;2024-02-28T09:46:00;18.70;;;6.45;;
64936;SDS011;51452;47.698;19.050;2024-02-28T09:48:29;16.63;;;6.25;;
64936;SDS011;51452;47.698;19.050;2024-02-28T09:50:56;18.58;;;7.50;;
64936;SDS011;51452;47.698;19.050;2024-02-28T09:53:22;17.50;;;7.57;;
64936;SDS011;51452;47.698;19.050;2024-02-28T09:55:48;13.77;;;7.28;;
64936;SDS011;51452;47.698;19.050;2024-02-28T09:58:15;17.70;;;7.15;;
64936;SDS011;51452;47.698;19.050;2024-02-28T10:00:42;16.58;;;7.07;;
64936;SDS011;51452;47.698;19.050;2024-02-28T10:03:10;14.98;;;7.32;;
64936;SDS011;51452;47.698;19.050;2024-02-28T10:05:38;13.65;;;7.28;;
64936;SDS011;51452;47.698;19.050;2024-02-28T10:08:04;11.38;;;6.53;;
64936;SDS011;51452;47.698;19.050;2024-02-28T10:10:30;15.90;;;6.50;;
64936;SDS011;51452;47.698;19.050;2024-02-28T10:12:56;16.00;;;7.25;;
64936;SDS011;51452;47.698;19.050;2024-02-28T10:15:22;11.43;;;6.32;;
64936;SDS011;51452;47.698;19.050;2024-02-28T10:17:47;15.00;;;7.07;;
64936;SDS011;51452;47.698;19.050;2024-02-28T10:20:13;16.27;;;7.10;;
64936;SDS011;51452;47.698;19.050;2024-02-28T10:22:39;13.57;;;7.32;;
64936;SDS011;51452;47.698;19.050;2024-02-28T10:25:05;18.40;;;6.65;;
64936;SDS011;51452;47.698;19.050;2024-02-28T10:27:34;22.40;;;7.07;;
64936;SDS011;51452;47.698;19.050;2024-02-28T10:30:00;17.45;;;8.10;;
64936;SDS011;51452;47.698;19.050;2024-02-28T10:32:36;15.27;;;7.55;;
64936;SDS011;51452;47.698;19.050;2024-02-28T10:35:02;16.15;;;7.30;;
64936;SDS011;51452;47.698;19.050;2024-02-28T10:37:28;17.48;;;7.15;;
64936;SDS011;51452;47.698;19.050;2024-02-28T10:39:58;21.38;;;7.85;;
64936;SDS011;51452;47.698;19.050;2024-02-28T10:42:27;15.27;;;7.10;;
64936;SDS011;51452;47.698;19.050;2024-02-28T10:44:55;13.23;;;7.93;;
64936;SDS011;51452;47.698;19.050;2024-02-28T10:47:23;13.65;;;7.40;;
64936;SDS011;51452;47.698;19.050;2024-02-28T10:49:50;14.07;;;7.80;;
64936;SDS011;51452;47.698;19.050;2024-02-28T10:52:16;14.32;;;7.88;;
64936;SDS011;51452;47.698;19.050;2024-02-28T10:54:46;15.75;;;7.65;;
64936;SDS011;51452;47.698;19.050;2024-02-28T10:57:21;17.63;;;7.40;;
64936;SDS011;51452;47.698;19.050;2024-02-28T10:59:49;13.52;;;7.60;;
64936;SDS011;51452;47.698;19.050;2024-02-28T11:02:15;17.15;;;7.45;;
64936;SDS011;51452;47.698;19.050;2024-02-28T11:04:40;16.95;;;7.82;;
64936;SDS011;51452;47.698;19.050;2024-02-28T11:07:06;17.40;;;7.30;;
64936;SDS011;51452;47.698;19.050;2024-02-28T11:09:32;17.38;;;8.50;;
64936;SDS011;51452;47.698;19.050;2024-02-28T11:11:59;18.83;;;7.97;;
64936;SDS011;51452;47.698;19.050;2024-02-28T11:14:24;16.05;;;7.38;;
64936;SDS011;51452;47.698;19.050;2024-02-28T11:19:27;20.85;;;7.53;;
64936;SDS011;51452;47.698;19.050;2024-02-28T11:21:54;22.55;;;8.65;;
64936;SDS011;51452;47.698;19.050;2024-02-28T11:24:23;14.52;;;7.80;;
64936;SDS011;51452;47.698;19.050;2024-02-28T11:26:50;18.38;;;8.55;;
64936;SDS011;51452;47.698;19.050;2024-02-28T11:29:16;17.67;;;8.05;;
64936;SDS011;51452;47.698;19.050;2024-02-28T11:31:48;13.88;;;7.45;;
64936;SDS011;51452;47.698;19.050;2024-02-28T11:34:13;14.48;;;7.28;;
64936;SDS011;51452;47.698;19.050;2024-02-28T11:36:39;17.08;;;7.57;;
64936;SDS011;51452;47.698;19.050;2024-02-28T11:39:06;17.45;;;7.82;;
64936;SDS011;51452;47.698;19.050;2024-02-28T11:41:31;13.43;;;7.65;;
64936;SDS011;51452;47.698;19.050;2024-02-28T11:43:57;15.20;;;7.63;;
64936;SDS011;51452;47.698;19.050;2024-02-28T11:46:23;15.65;;;8.10;;
64936;SDS011;51452;47.698;19.050;2024-02-28T11:48:49;15.52;;;8.77;;
64936;SDS011;51452;47.698;19.050;2024-02-28T11:51:14;18.35;;;8.35;;
64936;SDS011;51452;47.698;19.050;2024-02-28T11:53:40;17.75;;;7.82;;
64936;SDS011;51452;47.698;19.050;2024-02-28T11:56:05;14.00;;;7.82;;
64936;SDS011;51452;47.698;19.050;2024-02-28T11:58:33;17.67;;;7.60;;
64936;SDS011;51452;47.698;19.050;2024-02-28T12:00:58;21.10;;;8.25;;
64936;SDS011;51452;47.698;19.050;2024-02-28T12:03:24;16.48;;;8.10;;
64936;SDS011;51452;47.698;19.050;2024-02-28T12:05:51;18.40;;;8.40;;
64936;SDS011;51452;47.698;19.050;2024-02-28T12:08:17;17.75;;;8.70;;
64936;SDS011;51452;47.698;19.050;2024-02-28T12:10:46;17.55;;;8.40;;
64936;SDS011;51452;47.698;19.050;2024-02-28T12:13:16;18.90;;;8.82;;
64936;SDS011;51452;47.698;19.050;2024-02-28T12:15:42;19.55;;;8.48;;
64936;SDS011;51452;47.698;19.050;2024-02-28T12:18:08;15.63;;;8.20;;
64936;SDS011;51452;47.698;19.050;2024-02-28T12:20:35;20.20;;;8.68;;
64936;SDS011;51452;47.698;19.050;2024-02-28T12:23:02;17.25;;;8.48;;
64936;SDS011;51452;47.698;19.050;2024-02-28T12:25:28;19.17;;;8.48;;
64936;SDS011;51452;47.698;19.050;2024-02-28T12:27:54;17.60;;;8.57;;
64936;SDS011;51452;47.698;19.050;2024-02-28T12:30:19;18.80;;;8.85;;
64936;SDS011;51452;47.698;19.050;2024-02-28T12:32:45;17.02;;;8.70;;
64936;SDS011;51452;47.698;19.050;2024-02-28T12:35:11;20.92;;;8.75;;
64936;SDS011;51452;47.698;19.050;2024-02-28T12:37:36;13.75;;;8.15;;
64936;SDS011;51452;47.698;19.050;2024-02-28T12:40:02;20.83;;;8.18;;
64936;SDS011;51452;47.698;19.050;2024-02-28T12:42:29;15.80;;;8.43;;
64936;SDS011;51452;47.698;19.050;2024-02-28T12:44:58;20.63;;;8.65;;
64936;SDS011;51452;47.698;19.050;2024-02-28T12:47:23;18.42;;;8.35;;
64936;SDS011;51452;47.698;19.050;2024-02-28T12:49:49;15.82;;;8.05;;
64936;SDS011;51452;47.698;19.050;2024-02-28T12:52:14;16.25;;;8.18;;
64936;SDS011;51452;47.698;19.050;2024-02-28T12:54:40;20.58;;;8.25;;
64936;SDS011;51452;47.698;19.050;2024-02-28T12:57:05;16.65;;;8.45;;
64936;SDS011;51452;47.698;19.050;2024-02-28T12:59:31;18.23;;;8.02;;
64936;SDS011;51452;47.698;19.050;2024-02-28T13:01:58;15.27;;;8.18;;
64936;SDS011;51452;47.698;19.050;2024-02-28T13:04:23;17.35;;;8.45;;
64936;SDS011;51452;47.698;19.050;2024-02-28T13:06:50;19.65;;;9.35;;
64936;SDS011;51452;47.698;19.050;2024-02-28T13:09:16;14.93;;;7.72;;
64936;SDS011;51452;47.698;19.050;2024-02-28T13:11:42;17.65;;;8.35;;
64936;SDS011;51452;47.698;19.050;2024-02-28T13:14:07;16.70;;;8.05;;
64936;SDS011;51452;47.698;19.050;2024-02-28T13:16:34;20.00;;;8.93;;
64936;SDS011;51452;47.698;19.050;2024-02-28T13:18:59;16.25;;;7.95;;
64936;SDS011;51452;47.698;19.050;2024-02-28T13:21:25;16.98;;;8.73;;
64936;SDS011;51452;47.698;19.050;2024-02-28T13:23:50;18.85;;;7.55;;
64936;SDS011;51452;47.698;19.050;2024-02-28T13:26:15;17.67;;;7.95;;
64936;SDS011;51452;47.698;19.050;2024-02-28T13:28:45;15.82;;;8.68;;
64936;SDS011;51452;47.698;19.050;2024-02-28T13:31:11;16.13;;;7.50;;
64936;SDS011;51452;47.698;19.050;2024-02-28T13:33:37;14.90;;;7.75;;
64936;SDS011;51452;47.698;19.050;2024-02-28T13:36:03;17.70;;;8.05;;
64936;SDS011;51452;47.698;19.050;2024-02-28T13:38:29;13.75;;;7.60;;
64936;SDS011;51452;47.698;19.050;2024-02-28T13:40:55;11.25;;;7.40;;
64936;SDS011;51452;47.698;19.050;2024-02-28T13:43:21;14.25;;;7.78;;
64936;SDS011;51452;47.698;19.050;2024-02-28T13:45:47;15.93;;;7.63;;
64936;SDS011;51452;47.698;19.050;2024-02-28T13:48:17;14.88;;;8.70;;
64936;SDS011;51452;47.698;19.050;2024-02-28T13:50:46;15.00;;;7.38;;
64936;SDS011;51452;47.698;19.050;2024-02-28T13:53:12;18.98;;;7.68;;
64936;SDS011;51452;47.698;19.050;2024-02-28T13:55:37;15.20;;;8.10;;
64936;SDS011;51452;47.698;19.050;2024-02-28T13:58:03;17.02;;;7.80;;
64936;SDS011;51452;47.698;19.050;2024-02-28T14:00:29;14.35;;;7.85;;
64936;SDS011;51452;47.698;19.050;2024-02-28T14:02:55;15.95;;;7.45;;
64936;SDS011;51452;47.698;19.050;2024-02-28T14:05:20;14.93;;;8.45;;
64936;SDS011;51452;47.698;19.050;2024-02-28T14:07:46;14.75;;;8.10;;
64936;SDS011;51452;47.698;19.050;2024-02-28T14:10:11;21.58;;;8.55;;
64936;SDS011;51452;47.698;19.050;2024-02-28T14:12:37;19.65;;;9.43;;
64936;SDS011;51452;47.698;19.050;2024-02-28T14:15:03;16.15;;;9.02;;
64936;SDS011;51452;47.698;19.050;2024-02-28T14:17:29;24.10;;;9.73;;